Time;durP1;ratioP1;P1;durP2;ratioP2;P2;SDS_P1;SDS_P2;PMS_P1;PMS_P2;Temp;Humidity;BMP_temperature;BMP_pressure;BME280_temperature;BME280_humidity;BME280_pressure;Samples;Min_cycle;Max_cycle;Signal;HPM_P1;HPM_P2
2023/12/29 00:01:44;;;;;;;4.82;1.60;;;11.50;99.90;;;;;;4137951;28;20053;-68
2023/12/29 00:03:45;;;;;;;7.35;1.38;;;11.60;99.90;;;;;;4137356;28;20077;-68
2023/12/29 00:05:45;;;;;;;6.53;1.73;;;11.60;99.90;;;;;;4133875;28;20042;-68
2023/12/29 00:07:46;;;;;;;5.88;1.45;;;11.60;99.90;;;;;;4137983;28;20046;-67
2023/12/29 00:09:47;;;;;;;9.27;1.90;;;11.60;99.90;;;;;;4132379;28;20076;-67
2023/12/29 00:11:49;;;;;;;8.10;1.63;;;11.60;99.90;;;;;;4135226;28;20049;-74
2023/12/29 00:13:50;;;;;;;;;;;11.60;99.90;;;;;;4139498;28;20029;-74
2023/12/29 00:15:55;;;;;;;4.55;1.50;;;11.60;99.90;;;;;;4140127;28;20015;-74
2023/12/29 00:17:55;;;;;;;7.47;1.92;;;11.60;99.90;;;;;;4156666;28;20068;-74
2023/12/29 00:19:56;;;;;;;10.00;2.10;;;11.60;99.90;;;;;;4143028;28;20042;-74
2023/12/29 00:21:56;;;;;;;4.72;1.63;;;11.60;99.90;;;;;;4140403;28;20037;-74
2023/12/29 00:23:57;;;;;;;7.07;1.80;;;11.60;99.90;;;;;;4139267;28;20034;-74
2023/12/29 00:25:58;;;;;;;6.68;1.90;;;11.60;99.90;;;;;;4137128;28;20069;-74
2023/12/29 00:27:58;;;;;;;6.10;1.55;;;11.60;99.90;;;;;;4135822;28;20038;-75
2023/12/29 00:29:59;;;;;;;12.35;1.92;;;11.60;99.90;;;;;;4130622;28;20038;-74
2023/12/29 00:32:02;;;;;;;5.15;1.38;;;11.60;99.90;;;;;;4136431;28;20023;-74
2023/12/29 00:34:03;;;;;;;5.47;1.33;;;11.60;99.90;;;;;;4142181;28;20052;-74
2023/12/29 00:36:04;;;;;;;6.82;1.80;;;11.60;99.90;;;;;;4139799;28;20390;-74
2023/12/29 00:38:06;;;;;;;6.57;1.58;;;11.60;99.90;;;;;;4155588;28;20154;-74
2023/12/29 00:40:07;;;;;;;5.93;1.40;;;11.60;99.90;;;;;;4141104;28;20097;-75
2023/12/29 00:42:07;;;;;;;4.90;1.40;;;11.60;99.90;;;;;;4138726;28;20797;-75
2023/12/29 00:44:08;;;;;;;6.40;1.95;;;11.60;99.90;;;;;;4141730;28;20045;-75
2023/12/29 00:46:09;;;;;;;7.18;1.67;;;11.60;99.90;;;;;;4143482;28;20088;-75
2023/12/29 00:48:09;;;;;;;7.03;1.90;;;11.60;99.90;;;;;;4145597;28;20373;-74
2023/12/29 00:50:10;;;;;;;6.07;1.73;;;11.60;99.90;;;;;;4135961;28;20034;-75
2023/12/29 00:52:10;;;;;;;7.45;1.52;;;11.60;99.90;;;;;;4142433;28;20045;-75
2023/12/29 00:54:11;;;;;;;6.25;1.58;;;11.60;99.90;;;;;;4138379;28;20038;-74
2023/12/29 00:56:12;;;;;;;6.75;1.70;;;11.60;99.90;;;;;;4143329;28;20041;-74
2023/12/29 00:58:12;;;;;;;12.30;1.75;;;11.60;99.90;;;;;;4138265;28;20069;-74
2023/12/29 01:00:13;;;;;;;5.90;1.60;;;11.60;99.90;;;;;;4137951;28;20498;-75
2023/12/29 01:02:14;;;;;;;5.57;1.70;;;11.60;99.90;;;;;;4136735;28;20034;-75
2023/12/29 01:04:14;;;;;;;8.80;1.90;;;11.60;99.90;;;;;;4135986;28;20038;-74
2023/12/29 01:06:15;;;;;;;8.52;2.22;;;11.60;99.90;;;;;;4149316;28;20030;-74
2023/12/29 01:08:16;;;;;;;6.35;1.42;;;11.60;99.90;;;;;;4139643;28;20042;-74
2023/12/29 01:10:16;;;;;;;8.35;1.80;;;11.60;99.90;;;;;;4137492;28;20045;-75
2023/12/29 01:12:17;;;;;;;5.88;1.63;;;11.60;99.90;;;;;;4138213;28;20035;-74
2023/12/29 01:14:17;;;;;;;6.70;1.85;;;11.60;99.90;;;;;;4144345;28;20132;-74
2023/12/29 01:16:18;;;;;;;6.00;1.63;;;11.50;99.90;;;;;;4140076;28;20494;-74
2023/12/29 01:18:18;;;;;;;4.93;1.50;;;11.50;99.90;;;;;;4137031;28;24662;-74
2023/12/29 01:20:19;;;;;;;11.15;1.88;;;11.60;99.90;;;;;;4142492;28;20034;-67
2023/12/29 01:22:20;;;;;;;5.47;1.40;;;11.50;99.90;;;;;;4138962;28;20044;-68
2023/12/29 01:24:20;;;;;;;3.47;1.30;;;11.50;99.90;;;;;;4136969;28;20046;-68
2023/12/29 01:26:21;;;;;;;5.97;1.67;;;11.50;99.90;;;;;;4138847;28;20066;-69
2023/12/29 01:28:22;;;;;;;9.00;2.00;;;11.60;99.90;;;;;;4140648;28;20136;-69
2023/12/29 01:30:23;;;;;;;5.82;1.55;;;11.50;99.90;;;;;;4144801;28;20065;-68
2023/12/29 01:32:23;;;;;;;5.70;1.45;;;11.50;99.90;;;;;;4139196;28;20042;-69
2023/12/29 01:34:32;;;;;;;7.53;1.67;;;11.50;99.90;;;;;;4134446;28;20034;-68
2023/12/29 01:36:32;;;;;;;8.15;2.00;;;11.50;99.90;;;;;;4129602;28;20046;-68
2023/12/29 01:38:33;;;;;;;4.57;1.40;;;11.60;99.90;;;;;;4140714;28;20042;-68
2023/12/29 01:40:43;;;;;;;5.55;1.45;;;11.50;99.90;;;;;;4143114;28;20041;-68
2023/12/29 01:42:44;;;;;;;9.63;1.70;;;11.50;99.90;;;;;;4138913;28;20085;-68
2023/12/29 01:44:44;;;;;;;6.47;1.40;;;11.50;99.90;;;;;;4138351;28;20125;-69
2023/12/29 01:46:46;;;;;;;6.68;1.73;;;11.40;99.90;;;;;;4131159;28;20475;-69
2023/12/29 01:48:47;;;;;;;9.90;2.08;;;11.50;99.90;;;;;;4141774;28;20145;-69
2023/12/29 01:50:47;;;;;;;4.80;1.80;;;11.40;99.90;;;;;;4145885;28;20065;-69
2023/12/29 01:52:49;;;;;;;8.63;2.03;;;11.40;99.90;;;;;;4139888;28;20027;-70
2023/12/29 01:54:52;;;;;;;10.63;1.80;;;11.30;99.90;;;;;;4141894;28;20494;-70
2023/12/29 01:56:57;;;;;;;9.75;1.77;;;11.20;99.90;;;;;;4135514;28;20502;-71
2023/12/29 01:58:57;;;;;;;4.50;1.45;;;11.20;99.90;;;;;;4143526;28;20050;-71
2023/12/29 02:01:00;;;;;;;8.80;1.80;;;11.10;99.90;;;;;;4132201;28;20141;-72
2023/12/29 02:03:01;;;;;;;4.18;1.77;;;11.10;99.90;;;;;;4140396;28;20037;-73
2023/12/29 02:05:01;;;;;;;7.13;2.17;;;11.00;99.90;;;;;;4142079;28;20526;-71
2023/12/29 02:07:02;;;;;;;10.90;1.98;;;11.00;99.90;;;;;;4141104;28;20038;-72
2023/12/29 02:09:04;;;;;;;12.32;2.25;;;10.90;99.90;;;;;;4142083;28;20053;-72
2023/12/29 02:11:04;;;;;;;4.95;1.73;;;10.90;99.90;;;;;;4140819;28;20041;-72
2023/12/29 02:13:05;;;;;;;7.93;2.05;;;10.80;99.90;;;;;;4139083;28;20206;-71
2023/12/29 02:15:07;;;;;;;6.60;2.03;;;10.90;99.90;;;;;;4144314;28;20050;-72
2023/12/29 02:17:47;;;;;;;8.80;2.20;;;10.80;99.90;;;;;;4129956;28;20038;-71
2023/12/29 02:19:50;;;;;;;8.95;1.90;;;10.80;99.90;;;;;;4130371;28;20073;-71
2023/12/29 02:21:50;;;;;;;11.93;2.25;;;10.70;99.90;;;;;;4143368;28;20066;-72
2023/12/29 02:23:51;;;;;;;10.63;2.40;;;10.70;99.90;;;;;;4146095;28;20041;-72
2023/12/29 02:25:58;;;;;;;7.43;2.03;;;10.60;99.90;;;;;;4140450;28;20037;-72
2023/12/29 02:28:22;;;;;;;8.88;1.90;;;10.60;99.90;;;;;;4143548;28;20049;-72
2023/12/29 02:30:34;;;;;;;5.95;1.80;;;10.70;99.90;;;;;;4151290;28;20041;-72
2023/12/29 02:32:38;;;;;;;8.32;1.75;;;10.60;99.90;;;;;;4137635;28;20065;-68
2023/12/29 02:34:41;;;;;;;9.75;1.88;;;10.60;99.90;;;;;;4142886;28;20536;-67
2023/12/29 02:36:42;;;;;;;8.20;2.13;;;10.60;99.90;;;;;;4137416;28;20037;-67
2023/12/29 02:38:44;;;;;;;7.03;2.05;;;10.60;99.90;;;;;;4136007;28;20046;-67
2023/12/29 02:40:45;;;;;;;5.72;1.90;;;10.60;99.90;;;;;;4136370;28;20435;-67
2023/12/29 02:42:47;;;;;;;5.53;1.33;;;10.60;99.90;;;;;;4131037;28;20134;-67
2023/12/29 02:44:47;;;;;;;9.85;1.65;;;10.60;99.90;;;;;;4133698;28;20621;-67
2023/12/29 02:46:48;;;;;;;9.55;2.17;;;10.60;99.90;;;;;;4134987;28;20046;-67
2023/12/29 02:48:49;;;;;;;9.15;2.70;;;10.60;99.90;;;;;;4140164;28;20057;-67
2023/12/29 02:50:50;;;;;;;9.07;2.55;;;10.60;99.90;;;;;;4132769;28;20549;-67
2023/12/29 02:52:50;;;;;;;8.40;2.28;;;10.60;99.90;;;;;;4135531;28;20504;-67
2023/12/29 02:54:51;;;;;;;6.55;1.73;;;10.60;99.90;;;;;;4132818;28;20042;-67
2023/12/29 02:56:51;;;;;;;6.85;2.13;;;10.60;99.90;;;;;;4143156;28;20042;-67
2023/12/29 02:58:52;;;;;;;6.90;1.75;;;10.60;99.90;;;;;;4132585;28;20117;-68
2023/12/29 03:00:53;;;;;;;8.25;1.80;;;10.70;99.90;;;;;;4134031;28;20042;-68
2023/12/29 03:02:55;;;;;;;12.80;2.55;;;10.60;99.90;;;;;;4128746;28;20104;-68
2023/12/29 03:04:55;;;;;;;8.70;2.40;;;10.70;99.90;;;;;;4130029;28;20046;-67
2023/12/29 03:06:56;;;;;;;8.02;1.60;;;10.70;99.90;;;;;;4140282;28;20482;-68
2023/12/29 03:08:56;;;;;;;8.10;1.75;;;10.70;99.90;;;;;;4145464;28;20537;-67
2023/12/29 03:10:57;;;;;;;8.07;1.75;;;10.70;99.90;;;;;;4137322;28;20533;-67
2023/12/29 03:12:57;;;;;;;7.07;2.20;;;10.70;99.90;;;;;;4138056;28;20030;-67
2023/12/29 03:14:58;;;;;;;8.30;2.20;;;10.70;99.90;;;;;;4135732;28;20069;-67
2023/12/29 03:16:59;;;;;;;8.65;2.33;;;10.70;99.90;;;;;;4132487;28;20076;-67
2023/12/29 03:18:59;;;;;;;7.57;1.95;;;10.70;99.90;;;;;;4131685;28;20452;-67
2023/12/29 03:21:00;;;;;;;3.28;1.33;;;10.80;99.90;;;;;;4139725;28;20037;-68
2023/12/29 03:23:00;;;;;;;5.97;1.70;;;10.80;99.90;;;;;;4137938;28;20030;-67
2023/12/29 03:25:01;;;;;;;6.30;1.98;;;10.80;99.90;;;;;;4134136;28;20478;-67
2023/12/29 03:27:02;;;;;;;6.55;1.65;;;10.90;99.90;;;;;;4134686;28;20387;-67
2023/12/29 03:29:02;;;;;;;5.50;1.58;;;10.80;99.90;;;;;;4133685;28;20062;-68
2023/12/29 03:31:03;;;;;;;9.75;2.35;;;10.90;99.90;;;;;;4136971;28;20037;-67
2023/12/29 03:33:04;;;;;;;9.88;2.03;;;10.90;99.90;;;;;;4137023;28;20034;-67
2023/12/29 03:35:05;;;;;;;7.30;1.85;;;10.90;99.90;;;;;;4129628;28;20046;-67
2023/12/29 03:37:05;;;;;;;6.70;1.65;;;10.90;99.90;;;;;;4131567;28;20031;-67
2023/12/29 03:39:06;;;;;;;7.65;1.85;;;10.90;99.90;;;;;;4135200;28;20038;-67
2023/12/29 03:41:07;;;;;;;8.35;1.80;;;10.90;99.90;;;;;;4135405;28;20040;-70
2023/12/29 03:43:07;;;;;;;8.18;1.85;;;10.90;99.90;;;;;;4130754;28;20066;-69
2023/12/29 03:45:08;;;;;;;7.90;1.77;;;11.00;99.90;;;;;;4134537;28;20096;-70
2023/12/29 03:47:10;;;;;;;9.32;2.13;;;11.00;99.90;;;;;;4130766;28;20050;-69
2023/12/29 03:49:11;;;;;;;11.73;2.33;;;11.00;99.90;;;;;;4136816;28;20486;-69
2023/12/29 03:51:11;;;;;;;9.40;2.28;;;11.00;99.90;;;;;;4138929;28;20045;-69
2023/12/29 03:53:14;;;;;;;9.02;1.83;;;11.00;99.90;;;;;;4136797;28;20041;-69
2023/12/29 03:55:15;;;;;;;;;;;11.00;99.90;;;;;;4136583;28;20079;-70
2023/12/29 03:57:16;;;;;;;9.07;2.13;;;11.00;99.90;;;;;;4132755;28;19929;-69
2023/12/29 03:59:16;;;;;;;7.10;1.60;;;11.00;99.90;;;;;;4135887;28;20486;-69
2023/12/29 04:01:17;;;;;;;7.63;1.90;;;11.00;99.90;;;;;;4139043;28;20116;-69
2023/12/29 04:03:18;;;;;;;10.65;2.28;;;11.00;99.90;;;;;;4140916;28;20038;-69
2023/12/29 04:05:19;;;;;;;11.30;1.92;;;11.00;99.90;;;;;;4130342;28;20050;-69
2023/12/29 04:07:20;;;;;;;5.80;1.45;;;11.00;99.90;;;;;;4137228;28;21677;-69
2023/12/29 04:09:21;;;;;;;11.60;2.22;;;11.00;99.90;;;;;;4135821;28;20091;-69
2023/12/29 04:11:21;;;;;;;7.18;1.80;;;11.00;99.90;;;;;;4133045;28;20068;-69
2023/12/29 04:13:22;;;;;;;7.22;1.73;;;11.00;99.90;;;;;;4137119;28;20088;-69
2023/12/29 04:15:22;;;;;;;6.78;1.83;;;11.00;99.90;;;;;;4132517;28;20693;-69
2023/12/29 04:17:23;;;;;;;10.82;2.10;;;11.00;99.90;;;;;;4136847;28;20085;-69
2023/12/29 04:19:24;;;;;;;10.93;2.10;;;11.10;99.90;;;;;;4135153;28;20046;-70
2023/12/29 04:21:24;;;;;;;5.25;1.50;;;11.00;99.90;;;;;;4140723;28;20037;-69
2023/12/29 04:23:25;;;;;;;8.85;2.20;;;11.00;99.90;;;;;;4137818;28;20029;-69
2023/12/29 04:25:26;;;;;;;9.13;1.77;;;11.10;99.90;;;;;;4154008;28;20048;-68
2023/12/29 04:27:26;;;;;;;5.82;1.80;;;11.00;99.90;;;;;;4131298;28;20050;-68
2023/12/29 04:29:27;;;;;;;12.43;2.20;;;11.10;99.90;;;;;;4135322;28;20046;-68
2023/12/29 04:31:27;;;;;;;10.05;2.30;;;11.00;99.90;;;;;;4136566;28;20041;-69
2023/12/29 04:33:28;;;;;;;6.10;1.50;;;11.00;99.90;;;;;;4139581;28;20038;-68
2023/12/29 04:35:28;;;;;;;17.05;2.05;;;11.00;99.90;;;;;;4137703;28;20054;-68
2023/12/29 04:37:29;;;;;;;4.80;1.40;;;11.00;99.90;;;;;;4135465;28;20041;-68
2023/12/29 04:39:29;;;;;;;6.00;1.80;;;11.00;99.90;;;;;;4136092;28;20096;-68
2023/12/29 04:41:30;;;;;;;4.85;1.67;;;11.00;99.90;;;;;;4130872;28;20038;-69
2023/12/29 04:43:31;;;;;;;11.85;2.47;;;11.00;99.90;;;;;;4132941;28;20050;-69
2023/12/29 04:45:31;;;;;;;7.88;2.05;;;11.00;99.90;;;;;;4129189;28;20555;-69
2023/12/29 04:47:32;;;;;;;10.43;1.83;;;11.00;99.90;;;;;;4137330;28;20407;-69
2023/12/29 04:49:32;;;;;;;8.35;1.80;;;11.00;99.90;;;;;;4135698;28;20034;-68
2023/12/29 04:51:33;;;;;;;5.72;1.48;;;11.00;99.90;;;;;;4134418;28;20045;-66
2023/12/29 04:53:33;;;;;;;8.85;2.05;;;11.00;99.90;;;;;;4138082;28;20066;-66
2023/12/29 04:55:34;;;;;;;8.38;1.80;;;11.00;99.90;;;;;;4138746;28;20057;-66
2023/12/29 04:57:34;;;;;;;9.38;2.05;;;11.00;99.90;;;;;;4132723;28;20035;-66
2023/12/29 04:59:35;;;;;;;9.15;1.70;;;11.00;99.90;;;;;;4138318;28;20044;-66
2023/12/29 05:01:36;;;;;;;10.25;2.20;;;11.00;99.90;;;;;;4133110;28;20038;-66
2023/12/29 05:03:36;;;;;;;9.93;2.10;;;10.90;99.90;;;;;;4140460;28;20786;-66
2023/12/29 05:05:38;;;;;;;7.70;1.98;;;10.90;99.90;;;;;;4140424;28;20164;-66
2023/12/29 05:07:38;;;;;;;7.47;1.70;;;10.90;99.90;;;;;;4138115;28;20487;-66
2023/12/29 05:09:39;;;;;;;7.05;1.77;;;11.00;99.90;;;;;;4137478;28;20072;-66
2023/12/29 05:11:40;;;;;;;8.13;1.92;;;11.00;99.90;;;;;;4134762;28;20042;-65
2023/12/29 05:13:40;;;;;;;7.75;1.85;;;11.00;99.90;;;;;;4134269;28;20038;-66
2023/12/29 05:15:41;;;;;;;9.98;2.17;;;11.00;99.90;;;;;;4139430;28;20038;-66
2023/12/29 05:17:41;;;;;;;4.25;1.60;;;11.00;99.90;;;;;;4132405;28;20196;-66
2023/12/29 05:19:42;;;;;;;7.22;2.00;;;11.00;99.90;;;;;;4137802;28;20046;-65
2023/12/29 05:21:43;;;;;;;12.30;1.60;;;11.00;99.90;;;;;;4133547;28;20038;-66
2023/12/29 05:23:45;;;;;;;12.48;2.30;;;11.00;99.90;;;;;;4141801;28;20518;-66
2023/12/29 05:25:45;;;;;;;4.65;1.58;;;11.00;99.90;;;;;;4136038;28;20042;-66
2023/12/29 05:27:46;;;;;;;6.88;1.90;;;11.00;99.90;;;;;;4133116;28;20529;-66
2023/12/29 05:29:46;;;;;;;8.73;2.00;;;11.00;99.90;;;;;;4137091;28;20107;-66
2023/12/29 05:31:47;;;;;;;11.80;2.08;;;11.00;99.90;;;;;;4135628;28;20054;-66
2023/12/29 05:33:48;;;;;;;10.40;1.80;;;11.00;99.90;;;;;;4143645;28;20041;-65
2023/12/29 05:35:48;;;;;;;9.88;2.38;;;11.00;99.90;;;;;;4144258;28;20046;-66
2023/12/29 05:37:50;;;;;;;8.35;2.03;;;11.00;99.90;;;;;;4139403;28;20123;-66
2023/12/29 05:39:50;;;;;;;9.00;2.00;;;11.00;99.90;;;;;;4140044;28;24558;-66
2023/12/29 05:41:51;;;;;;;6.60;1.80;;;10.90;99.90;;;;;;4139159;28;20164;-66
2023/12/29 05:43:52;;;;;;;9.35;2.05;;;11.00;99.90;;;;;;4141328;28;20088;-66
2023/12/29 05:45:52;;;;;;;14.13;2.33;;;11.00;99.90;;;;;;4137664;28;20084;-66
2023/12/29 05:47:53;;;;;;;5.10;1.25;;;11.00;99.90;;;;;;4136330;28;20058;-65
2023/12/29 05:49:53;;;;;;;8.68;1.92;;;11.00;99.90;;;;;;4139370;28;20039;-65
2023/12/29 05:51:54;;;;;;;7.78;1.98;;;11.00;99.90;;;;;;4137766;28;20037;-66
2023/12/29 05:53:54;;;;;;;7.60;1.98;;;11.00;99.90;;;;;;4141064;28;20034;-65
2023/12/29 05:55:55;;;;;;;6.97;1.85;;;11.00;99.90;;;;;;4135043;28;20053;-66
2023/12/29 05:57:56;;;;;;;7.75;1.52;;;11.00;99.90;;;;;;4135907;28;20050;-67
2023/12/29 05:59:56;;;;;;;7.18;1.83;;;11.00;99.90;;;;;;4139317;28;20049;-66
2023/12/29 06:01:57;;;;;;;6.85;1.75;;;11.00;99.90;;;;;;4139130;28;20029;-66
2023/12/29 06:03:57;;;;;;;10.50;2.30;;;11.00;99.90;;;;;;4134745;28;20426;-66
2023/12/29 06:05:58;;;;;;;7.40;1.77;;;11.00;99.90;;;;;;4131860;28;20060;-66
2023/12/29 06:07:59;;;;;;;7.22;1.67;;;11.00;99.90;;;;;;4137887;28;20066;-66
2023/12/29 06:09:59;;;;;;;7.40;1.95;;;11.00;99.90;;;;;;4140232;28;20547;-66
2023/12/29 06:12:00;;;;;;;9.20;2.08;;;11.00;99.90;;;;;;4140434;28;20084;-66
2023/12/29 06:14:00;;;;;;;6.03;1.60;;;11.00;99.90;;;;;;4142890;28;20038;-66
2023/12/29 06:16:01;;;;;;;13.00;2.33;;;11.00;99.90;;;;;;4130484;28;20042;-66
2023/12/29 06:18:02;;;;;;;6.97;1.73;;;11.00;99.90;;;;;;4134187;28;20121;-66
2023/12/29 06:20:05;;;;;;;10.45;2.08;;;10.90;99.90;;;;;;4129681;28;20035;-66
2023/12/29 06:22:09;;;;;;;6.93;1.90;;;10.90;99.90;;;;;;4133146;28;20464;-66
2023/12/29 06:24:11;;;;;;;6.97;2.00;;;10.90;99.90;;;;;;4139628;28;20112;-66
2023/12/29 06:26:20;;;;;;;7.30;1.93;;;10.90;99.90;;;;;;4133120;28;20546;-65
2023/12/29 06:28:20;;;;;;;9.80;2.25;;;10.80;99.90;;;;;;4133275;28;20133;-66
2023/12/29 06:30:21;;;;;;;7.28;2.08;;;10.90;99.90;;;;;;4138992;28;20038;-65
2023/12/29 06:32:22;;;;;;;9.52;2.17;;;10.90;99.90;;;;;;4139661;28;20090;-66
2023/12/29 06:34:22;;;;;;;5.07;1.55;;;10.90;99.90;;;;;;4134452;28;20182;-66
2023/12/29 06:36:23;;;;;;;11.05;2.35;;;10.90;99.90;;;;;;4134343;28;20049;-66
2023/12/29 06:38:24;;;;;;;11.75;2.22;;;10.90;99.90;;;;;;4135966;28;20038;-66
2023/12/29 06:40:24;;;;;;;11.43;2.20;;;10.90;99.90;;;;;;4141623;28;20621;-66
2023/12/29 06:42:25;;;;;;;9.80;2.10;;;10.90;99.90;;;;;;4136509;28;20528;-66
2023/12/29 06:44:25;;;;;;;9.93;2.00;;;10.90;99.90;;;;;;4136928;28;20065;-66
2023/12/29 06:46:26;;;;;;;7.05;1.85;;;11.00;99.90;;;;;;4142060;28;20042;-66
2023/12/29 06:48:26;;;;;;;13.27;2.78;;;10.90;99.90;;;;;;4138829;28;20058;-66
2023/12/29 06:50:27;;;;;;;6.72;1.40;;;10.90;99.90;;;;;;4141538;28;20037;-66
2023/12/29 06:52:33;;;;;;;11.20;1.90;;;10.90;99.90;;;;;;4130371;28;20038;-66
2023/12/29 06:54:34;;;;;;;10.40;1.80;;;10.90;99.90;;;;;;4136559;28;20390;-66
2023/12/29 06:56:36;;;;;;;6.82;1.60;;;11.00;99.90;;;;;;4134243;28;20068;-66
2023/12/29 06:58:37;;;;;;;4.18;1.45;;;11.00;99.90;;;;;;4134962;28;20493;-66
2023/12/29 07:00:37;;;;;;;6.85;1.58;;;11.00;99.90;;;;;;4135464;28;20038;-66
2023/12/29 07:02:40;;;;;;;10.52;1.75;;;11.00;99.90;;;;;;4136332;28;20041;-65
2023/12/29 07:04:42;;;;;;;5.15;1.20;;;11.00;99.90;;;;;;4139030;28;20041;-66
2023/12/29 07:06:43;;;;;;;9.85;2.17;;;11.00;99.90;;;;;;4131152;28;20786;-66
2023/12/29 07:08:44;;;;;;;6.45;1.63;;;11.00;99.90;;;;;;4129722;28;20052;-66
2023/12/29 07:10:44;;;;;;;9.15;1.80;;;11.00;99.90;;;;;;4133192;28;20061;-63
2023/12/29 07:12:45;;;;;;;6.05;1.77;;;10.90;99.90;;;;;;4131723;28;20084;-63
2023/12/29 07:14:45;;;;;;;9.18;1.92;;;10.90;99.90;;;;;;4140015;28;20050;-63
2023/12/29 07:16:46;;;;;;;5.00;1.45;;;10.90;99.90;;;;;;4136712;28;20977;-63
2023/12/29 07:18:47;;;;;;;9.10;1.98;;;10.80;99.90;;;;;;4138607;28;20486;-63
2023/12/29 07:20:47;;;;;;;8.07;1.88;;;10.80;99.90;;;;;;4132549;28;20117;-63
2023/12/29 07:22:48;;;;;;;4.57;1.35;;;10.80;99.90;;;;;;4136620;28;20042;-63
2023/12/29 07:24:48;;;;;;;4.53;1.23;;;10.80;99.90;;;;;;4136544;28;20046;-63
2023/12/29 07:26:49;;;;;;;10.30;2.00;;;10.80;99.90;;;;;;4133414;28;20068;-63
2023/12/29 07:28:53;;;;;;;7.93;1.88;;;10.80;99.90;;;;;;4138249;28;20049;-63
2023/12/29 07:30:54;;;;;;;10.98;2.17;;;10.70;99.90;;;;;;4139090;28;20052;-63
2023/12/29 07:32:55;;;;;;;7.57;1.65;;;10.70;99.90;;;;;;4134174;28;20050;-63
2023/12/29 07:34:57;;;;;;;12.43;2.22;;;10.80;99.90;;;;;;4134011;28;20176;-63
2023/12/29 07:36:58;;;;;;;8.27;1.83;;;10.70;99.90;;;;;;4138976;28;20041;-64
2023/12/29 07:38:58;;;;;;;8.90;1.85;;;10.70;99.90;;;;;;4137723;28;20470;-63
2023/12/29 07:41:00;;;;;;;9.80;1.52;;;10.80;99.90;;;;;;4134250;28;20083;-63
2023/12/29 07:43:01;;;;;;;6.57;1.70;;;10.80;99.90;;;;;;4133873;28;20806;-63
2023/12/29 07:45:01;;;;;;;7.63;1.63;;;10.80;99.90;;;;;;4134791;28;20050;-67
2023/12/29 07:47:02;;;;;;;7.13;1.52;;;10.70;99.90;;;;;;4150298;28;20054;-63
2023/12/29 07:49:03;;;;;;;11.07;2.08;;;10.70;99.90;;;;;;4136719;28;20125;-66
2023/12/29 07:51:06;;;;;;;8.70;2.03;;;10.70;99.90;;;;;;4138611;28;20092;-64
2023/12/29 07:53:06;;;;;;;5.85;1.50;;;10.70;99.90;;;;;;4138804;28;20041;-63
2023/12/29 07:55:07;;;;;;;5.70;1.60;;;10.70;99.90;;;;;;4136983;28;20050;-64
2023/12/29 07:57:07;;;;;;;7.22;1.55;;;10.70;99.90;;;;;;4139531;28;20045;-63
2023/12/29 07:59:08;;;;;;;12.27;1.85;;;10.80;99.90;;;;;;4141248;28;20037;-64
2023/12/29 08:01:10;;;;;;;3.55;1.25;;;10.80;99.90;;;;;;4140982;28;20050;-63
2023/12/29 08:03:10;;;;;;;8.07;1.77;;;10.80;99.90;;;;;;4155346;28;20033;-64
2023/12/29 08:05:11;;;;;;;6.75;1.40;;;10.80;99.90;;;;;;4141234;28;20038;-64
2023/12/29 08:07:12;;;;;;;7.70;1.38;;;10.80;99.90;;;;;;4141679;28;20040;-63
2023/12/29 08:09:12;;;;;;;9.40;2.08;;;10.80;99.90;;;;;;4135854;28;20165;-63
2023/12/29 08:11:16;;;;;;;8.35;1.90;;;10.70;99.90;;;;;;4133134;28;20603;-63
2023/12/29 08:13:17;;;;;;;6.53;1.50;;;10.80;99.90;;;;;;4141749;28;20038;-63
2023/12/29 08:15:17;;;;;;;5.50;1.40;;;10.80;99.90;;;;;;4138027;28;20042;-63
2023/12/29 08:17:18;;;;;;;11.27;1.95;;;10.80;99.90;;;;;;4128525;28;20065;-63
2023/12/29 08:19:18;;;;;;;6.00;1.40;;;10.80;99.90;;;;;;4134499;28;20045;-63
2023/12/29 08:21:19;;;;;;;8.63;1.58;;;10.80;99.90;;;;;;4141044;28;20058;-63
2023/12/29 08:23:20;;;;;;;6.65;1.60;;;10.80;99.90;;;;;;4138022;28;20040;-63
2023/12/29 08:25:21;;;;;;;7.90;1.33;;;10.80;99.90;;;;;;4131375;28;20468;-63
2023/12/29 08:27:28;;;;;;;10.68;2.08;;;10.70;99.90;;;;;;4140843;28;20062;-63
2023/12/29 08:29:28;;;;;;;5.97;1.45;;;10.70;99.90;;;;;;4140261;28;20054;-64
2023/12/29 08:31:29;;;;;;;4.75;1.52;;;10.70;99.90;;;;;;4139125;28;20029;-64
2023/12/29 08:33:29;;;;;;;4.90;1.30;;;10.70;99.90;;;;;;4137595;28;20033;-63
2023/12/29 08:35:30;;;;;;;7.05;1.73;;;10.60;99.90;;;;;;4138498;28;20109;-63
2023/12/29 08:37:32;;;;;;;5.15;1.38;;;10.60;99.90;;;;;;4140336;28;20040;-63
2023/12/29 08:39:32;;;;;;;6.97;1.48;;;10.70;99.90;;;;;;4139960;28;20180;-63
2023/12/29 08:41:33;;;;;;;6.78;1.27;;;10.70;99.90;;;;;;4137892;28;20429;-63
2023/12/29 08:43:36;;;;;;;5.88;1.50;;;10.70;99.90;;;;;;4139442;28;20038;-65
2023/12/29 08:45:38;;;;;;;;;;;10.70;99.90;;;;;;4135634;28;20058;-63
2023/12/29 08:47:38;;;;;;;6.28;1.35;;;10.70;99.90;;;;;;4138980;28;20352;-63
2023/12/29 08:49:40;;;;;;;6.82;1.63;;;10.70;99.90;;;;;;4137564;28;20034;-63
2023/12/29 08:51:41;;;;;;;7.07;1.98;;;10.70;99.90;;;;;;4140003;28;20426;-63
2023/12/29 08:53:42;;;;;;;7.47;1.23;;;10.70;99.90;;;;;;4138591;28;20053;-63
2023/12/29 08:55:42;;;;;;;5.80;1.10;;;10.70;99.90;;;;;;4141578;28;20071;-63
2023/12/29 08:57:43;;;;;;;4.07;1.10;;;10.70;99.90;;;;;;4145187;28;20041;-63
2023/12/29 08:59:43;;;;;;;5.07;1.00;;;10.70;99.90;;;;;;4145534;28;20042;-63
2023/12/29 09:01:44;;;;;;;7.40;1.17;;;10.70;99.90;;;;;;4144628;28;20034;-63
2023/12/29 09:03:44;;;;;;;3.08;0.90;;;10.70;99.90;;;;;;4145566;28;20180;-63
2023/12/29 09:05:45;;;;;;;3.47;1.00;;;10.70;99.90;;;;;;4156741;28;20068;-62
2023/12/29 09:07:46;;;;;;;4.50;1.08;;;10.70;99.90;;;;;;4140795;28;20144;-63
2023/12/29 09:09:46;;;;;;;5.93;0.88;;;10.70;99.90;;;;;;4136177;28;20042;-63
2023/12/29 09:11:47;;;;;;;4.93;1.10;;;10.70;99.90;;;;;;4138318;28;20407;-63
2023/12/29 09:13:48;;;;;;;2.95;0.75;;;10.70;99.90;;;;;;4141276;28;20137;-63
2023/12/29 09:15:49;;;;;;;4.10;0.98;;;10.70;99.90;;;;;;4139181;28;20518;-62
2023/12/29 09:17:49;;;;;;;4.72;0.88;;;10.70;99.90;;;;;;4142561;28;20038;-63
2023/12/29 09:19:50;;;;;;;3.42;0.75;;;10.70;99.90;;;;;;4143007;28;21872;-63
2023/12/29 09:21:50;;;;;;;2.53;1.00;;;10.70;99.90;;;;;;4142617;28;20038;-63
2023/12/29 09:23:52;;;;;;;3.15;0.70;;;10.80;99.90;;;;;;4143525;28;20065;-62
2023/12/29 09:25:52;;;;;;;1.13;0.60;;;10.80;99.90;;;;;;4143244;28;20129;-63
2023/12/29 09:27:53;;;;;;;1.85;0.82;;;10.80;99.90;;;;;;4145476;28;21945;-63
2023/12/29 09:29:53;;;;;;;1.35;0.55;;;10.70;99.90;;;;;;4145722;28;20061;-63
2023/12/29 09:31:54;;;;;;;2.65;0.50;;;10.70;99.90;;;;;;4145508;28;20113;-79
2023/12/29 09:33:56;;;;;;;2.63;0.50;;;10.80;99.90;;;;;;4142135;28;20173;-79
2023/12/29 09:35:57;;;;;;;2.40;0.77;;;10.80;99.90;;;;;;4137786;28;20100;-79
2023/12/29 09:37:59;;;;;;;1.52;0.45;;;10.80;99.90;;;;;;4141821;28;20041;-79
2023/12/29 09:39:59;;;;;;;4.88;0.70;;;10.80;99.90;;;;;;4143673;28;20042;-78
2023/12/29 09:42:03;;;;;;;0.45;0.30;;;10.80;99.90;;;;;;4143229;28;20398;-79
2023/12/29 09:44:09;;;;;;;1.75;0.40;;;10.80;99.90;;;;;;4143995;28;20064;-78
2023/12/29 09:46:12;;;;;;;1.30;0.30;;;10.80;99.90;;;;;;4144331;28;20528;-77
2023/12/29 09:48:16;;;;;;;3.00;0.73;;;10.80;99.90;;;;;;4144615;28;20144;-77
2023/12/29 09:50:18;;;;;;;4.72;1.00;;;10.80;99.90;;;;;;4143589;28;20037;-75
2023/12/29 09:52:21;;;;;;;1.03;0.60;;;10.80;99.90;;;;;;4145291;28;20034;-74
2023/12/29 09:54:22;;;;;;;0.75;0.40;;;10.70;99.90;;;;;;4144072;28;20068;-75
2023/12/29 09:56:22;;;;;;;2.67;0.57;;;10.70;99.90;;;;;;4143177;28;20050;-73
2023/12/29 09:58:25;;;;;;;1.05;0.30;;;10.70;99.90;;;;;;4141368;28;20061;-74
2023/12/29 10:00:26;;;;;;;0.63;0.40;;;10.70;99.90;;;;;;4141489;28;20132;-74
2023/12/29 10:02:27;;;;;;;2.03;0.50;;;10.70;99.90;;;;;;4144450;28;20038;-74
2023/12/29 10:04:28;;;;;;;4.88;0.82;;;10.70;99.90;;;;;;4145183;28;20070;-74
2023/12/29 10:06:34;;;;;;;2.00;0.50;;;10.70;99.90;;;;;;4141079;28;20042;-74
2023/12/29 10:08:36;;;;;;;1.67;0.55;;;10.60;99.90;;;;;;4140479;28;20061;-74
2023/12/29 10:10:40;;;;;;;1.60;0.43;;;10.60;99.90;;;;;;4122137;28;20031;-74
2023/12/29 10:12:42;;;;;;;0.82;0.40;;;10.60;99.90;;;;;;4135932;28;20768;-75
2023/12/29 10:15:09;;;;;;;1.35;0.43;;;10.70;99.90;;;;;;4138981;28;20121;-74
2023/12/29 10:17:39;;;;;;;2.78;0.60;;;10.60;99.90;;;;;;4134828;28;20073;-74
2023/12/29 10:19:41;;;;;;;0.65;0.40;;;10.60;99.90;;;;;;4141180;28;20047;-74
2023/12/29 10:22:04;;;;;;;1.10;0.40;;;10.70;99.90;;;;;;4134265;28;20053;-75
2023/12/29 10:24:18;;;;;;;0.80;0.38;;;10.70;99.90;;;;;;4141754;28;20170;-75
2023/12/29 10:26:19;;;;;;;1.77;0.52;;;10.70;99.90;;;;;;4141939;28;20073;-75
2023/12/29 10:28:20;;;;;;;1.08;0.50;;;10.70;99.90;;;;;;4143512;28;20056;-75
2023/12/29 10:30:22;;;;;;;1.95;0.60;;;10.70;99.90;;;;;;4143962;28;20450;-76
2023/12/29 10:32:22;;;;;;;1.17;0.60;;;10.70;99.90;;;;;;4144354;28;20478;-76